(°C)
10°
10°
10°
10°
10°
(°C)
E
E
E
ESE
ESE
SE
SE
(km/h)
14-23
14-24
14-23
14-23
13-24
13-22
12-20
(mm)
0
0
0
0
0
0
1.9
(%)
43
23
36
35
42
35
52

Élévation du soleil

/ 42.8°
sun-icon
UV 3
04:29
21:11
Dernier croissant (279°)
02:54
12:20

METAR pour 55.31°N 61.5°E (USCC)

Heure Conditions Température/
Point de rosée
Vent Visibilité Météo Nuages Pression Changement Brut
MVFR 10°C / 4°C 140º 10kt >10km - Broken Clouds 2000ft 1002 No Significant change USCC 231000Z 14005MPS 9999 BKN020CB 10/04 Q1002 R09/000060 NOSIG RMK QFE731
MVFR 10°C / 5°C 140º 12kt >10km - Broken Clouds 2000ft 1002 No Significant change USCC 230930Z 14006MPS 9999 BKN020CB 10/05 Q1002 R09/000060 NOSIG RMK QFE731
MVFR 10°C / 4°C 130º 12kt >10km - Broken Clouds 2000ft 1002 No Significant change USCC 230900Z 13006MPS 9999 BKN020CB 10/04 Q1002 R09/000060 NOSIG RMK QFE731
MVFR 9°C / 4°C 120º 10kt >10km - Broken Clouds 2600ft 1002 No Significant change USCC 230830Z 12005MPS 9999 BKN026CB 09/04 Q1002 R09/000060 NOSIG RMK QFE731
MVFR 9°C / 3°C 150º 8kt >10km - Broken Clouds 2600ft 1002 No Significant change USCC 230800Z 15004MPS 9999 BKN026CB 09/03 Q1002 R27/000060 NOSIG RMK QFE731
MVFR 10°C / 4°C 140º 10kt >10km - Broken Clouds 2600ft 1002 No Significant change USCC 230730Z 14005MPS 9999 BKN026CB 10/04 Q1002 R09/000060 NOSIG RMK QFE731
MVFR 10°C / 3°C 130º 12kt >10km - Broken Clouds 3000ft 1002 No Significant change USCC 230700Z 13006MPS 9999 BKN030CB 10/03 Q1002 R09/000060 NOSIG RMK QFE731
MVFR 9°C / 3°C 160º 10kt >10km - Broken Clouds 3000ft 1002 No Significant change USCC 230630Z 16005MPS 9999 BKN030CB 09/03 Q1002 R09/000060 NOSIG RMK QFE731
VFR 9°C / 3°C 180º 10kt >10km - Scattered Clouds 3000ft 1002 No Significant change USCC 230600Z 18005MPS 9999 SCT030CB 09/03 Q1002 R09/000060 NOSIG RMK QFE731
VFR 9°C / 3°C 160º 10kt >10km - Scattered Clouds 4000ft 1002 No Significant change USCC 230530Z 16005MPS 9999 SCT040 09/03 Q1002 R09/000060 NOSIG RMK QFE731
VFR 9°C / 3°C 170º 12kt >10km - Few Clouds 4000ft 1002 No Significant change USCC 230500Z 17006MPS 9999 FEW040 09/03 Q1002 R27/000060 NOSIG RMK QFE731
VFR 8°C / 3°C 170º 12kt >10km - Few Clouds 4000ft 1002 No Significant change USCC 230430Z 17006MPS 9999 FEW040 08/03 Q1002 R27/000060 NOSIG RMK QFE731
VFR 8°C / 3°C 150º 12kt >10km - Few Clouds 4000ft 1002 No Significant change USCC 230400Z 15006MPS 9999 FEW040 08/03 Q1002 R27/000060 NOSIG RMK QFE731
VFR 9°C / 3°C 140º 6kt >10km - Few Clouds 4000ft 1002 No Significant change USCC 230330Z 14003MPS 9999 FEW040 09/03 Q1002 R27/000060 NOSIG RMK QFE731
VFR 7°C / 3°C 140º 4kt >10km - Few Clouds 4000ft 1002 No Significant change USCC 230300Z 14002MPS 9999 FEW040 07/03 Q1002 R27/000060 NOSIG RMK QFE731
VFR 6°C / 3°C 120º 4kt >10km - Few Clouds 4000ft 1002 No Significant change USCC 230230Z 12002MPS 9999 FEW040 06/03 Q1002 R27/000060 NOSIG RMK QFE731
VFR 6°C / 2°C 130º variable 070º to 180º 4kt >10km - Few Clouds 4000ft 1002 No Significant change USCC 230200Z 13002MPS 070V180 9999 FEW040 06/02 Q1002 R27/000060 NOSIG RMK QFE732
VFR 5°C / 2°C 140º 2kt >10km - Few Clouds 4000ft 1002 No Significant change USCC 230130Z 14001MPS 9999 FEW040 05/02 Q1002 R27/000060 NOSIG RMK QFE732
VFR 4°C / 1°C 140º variable 120º to 190º 4kt >10km - Few Clouds 4000ft 1002 No Significant change USCC 230100Z 14002MPS 120V190 9999 FEW040 04/01 Q1002 R27/000060 NOSIG RMK QFE731
VFR 3°C / 1°C 180º 4kt >10km - Clouds and Visibility OK 1002 No Significant change USCC 230030Z 18002MPS CAVOK 03/01 Q1002 R27/000060 NOSIG RMK QFE731
VFR 3°C / 1°C 190º 6kt >10km - Clouds and Visibility OK 1001 No Significant change USCC 230000Z 19003MPS CAVOK 03/01 Q1001 R27/000060 NOSIG RMK QFE731
VFR 3°C / 0°C 190º 6kt >10km - Clouds and Visibility OK 1001 No Significant change USCC 222330Z 19003MPS CAVOK 03/00 Q1001 R27/000060 NOSIG RMK QFE731
VFR 2°C / 1°C 160º 6kt >10km - Clouds and Visibility OK 1001 No Significant change USCC 222300Z 16003MPS CAVOK 02/01 Q1001 R27/000060 NOSIG RMK QFE731
VFR 3°C / 0°C 170º 4kt >10km - Clouds and Visibility OK 1001 No Significant change USCC 222230Z 17002MPS CAVOK 03/00 Q1001 R27/000060 NOSIG RMK QFE731

MVFR

10°C / 4°C

[Plus]
Vent 140º 10kt
Visibilité >10km
Météo -
Nuages Broken Clouds 2000ft
Pression 1002
Changement No Significant change
Brut USCC 231000Z 14005MPS 9999 BKN020CB 10/04 Q1002 R09/000060 NOSIG RMK QFE731

MVFR

10°C / 5°C

[Plus]
Vent 140º 12kt
Visibilité >10km
Météo -
Nuages Broken Clouds 2000ft
Pression 1002
Changement No Significant change
Brut USCC 230930Z 14006MPS 9999 BKN020CB 10/05 Q1002 R09/000060 NOSIG RMK QFE731

MVFR

10°C / 4°C

[Plus]
Vent 130º 12kt
Visibilité >10km
Météo -
Nuages Broken Clouds 2000ft
Pression 1002
Changement No Significant change
Brut USCC 230900Z 13006MPS 9999 BKN020CB 10/04 Q1002 R09/000060 NOSIG RMK QFE731

MVFR

9°C / 4°C

[Plus]
Vent 120º 10kt
Visibilité >10km
Météo -
Nuages Broken Clouds 2600ft
Pression 1002
Changement No Significant change
Brut USCC 230830Z 12005MPS 9999 BKN026CB 09/04 Q1002 R09/000060 NOSIG RMK QFE731

MVFR

9°C / 3°C

[Plus]
Vent 150º 8kt
Visibilité >10km
Météo -
Nuages Broken Clouds 2600ft
Pression 1002
Changement No Significant change
Brut USCC 230800Z 15004MPS 9999 BKN026CB 09/03 Q1002 R27/000060 NOSIG RMK QFE731

MVFR

10°C / 4°C

[Plus]
Vent 140º 10kt
Visibilité >10km
Météo -
Nuages Broken Clouds 2600ft
Pression 1002
Changement No Significant change
Brut USCC 230730Z 14005MPS 9999 BKN026CB 10/04 Q1002 R09/000060 NOSIG RMK QFE731

MVFR

10°C / 3°C

[Plus]
Vent 130º 12kt
Visibilité >10km
Météo -
Nuages Broken Clouds 3000ft
Pression 1002
Changement No Significant change
Brut USCC 230700Z 13006MPS 9999 BKN030CB 10/03 Q1002 R09/000060 NOSIG RMK QFE731

MVFR

9°C / 3°C

[Plus]
Vent 160º 10kt
Visibilité >10km
Météo -
Nuages Broken Clouds 3000ft
Pression 1002
Changement No Significant change
Brut USCC 230630Z 16005MPS 9999 BKN030CB 09/03 Q1002 R09/000060 NOSIG RMK QFE731

VFR

9°C / 3°C

[Plus]
Vent 180º 10kt
Visibilité >10km
Météo -
Nuages Scattered Clouds 3000ft
Pression 1002
Changement No Significant change
Brut USCC 230600Z 18005MPS 9999 SCT030CB 09/03 Q1002 R09/000060 NOSIG RMK QFE731

VFR

9°C / 3°C

[Plus]
Vent 160º 10kt
Visibilité >10km
Météo -
Nuages Scattered Clouds 4000ft
Pression 1002
Changement No Significant change
Brut USCC 230530Z 16005MPS 9999 SCT040 09/03 Q1002 R09/000060 NOSIG RMK QFE731

VFR

9°C / 3°C

[Plus]
Vent 170º 12kt
Visibilité >10km
Météo -
Nuages Few Clouds 4000ft
Pression 1002
Changement No Significant change
Brut USCC 230500Z 17006MPS 9999 FEW040 09/03 Q1002 R27/000060 NOSIG RMK QFE731

VFR

8°C / 3°C

[Plus]
Vent 170º 12kt
Visibilité >10km
Météo -
Nuages Few Clouds 4000ft
Pression 1002
Changement No Significant change
Brut USCC 230430Z 17006MPS 9999 FEW040 08/03 Q1002 R27/000060 NOSIG RMK QFE731

VFR

8°C / 3°C

[Plus]
Vent 150º 12kt
Visibilité >10km
Météo -
Nuages Few Clouds 4000ft
Pression 1002
Changement No Significant change
Brut USCC 230400Z 15006MPS 9999 FEW040 08/03 Q1002 R27/000060 NOSIG RMK QFE731

VFR

9°C / 3°C

[Plus]
Vent 140º 6kt
Visibilité >10km
Météo -
Nuages Few Clouds 4000ft
Pression 1002
Changement No Significant change
Brut USCC 230330Z 14003MPS 9999 FEW040 09/03 Q1002 R27/000060 NOSIG RMK QFE731

VFR

7°C / 3°C

[Plus]
Vent 140º 4kt
Visibilité >10km
Météo -
Nuages Few Clouds 4000ft
Pression 1002
Changement No Significant change
Brut USCC 230300Z 14002MPS 9999 FEW040 07/03 Q1002 R27/000060 NOSIG RMK QFE731

VFR

6°C / 3°C

[Plus]
Vent 120º 4kt
Visibilité >10km
Météo -
Nuages Few Clouds 4000ft
Pression 1002
Changement No Significant change
Brut USCC 230230Z 12002MPS 9999 FEW040 06/03 Q1002 R27/000060 NOSIG RMK QFE731

VFR

6°C / 2°C

[Plus]
Vent 130º variable 070º to 180º 4kt
Visibilité >10km
Météo -
Nuages Few Clouds 4000ft
Pression 1002
Changement No Significant change
Brut USCC 230200Z 13002MPS 070V180 9999 FEW040 06/02 Q1002 R27/000060 NOSIG RMK QFE732

VFR

5°C / 2°C

[Plus]
Vent 140º 2kt
Visibilité >10km
Météo -
Nuages Few Clouds 4000ft
Pression 1002
Changement No Significant change
Brut USCC 230130Z 14001MPS 9999 FEW040 05/02 Q1002 R27/000060 NOSIG RMK QFE732

VFR

4°C / 1°C

[Plus]
Vent 140º variable 120º to 190º 4kt
Visibilité >10km
Météo -
Nuages Few Clouds 4000ft
Pression 1002
Changement No Significant change
Brut USCC 230100Z 14002MPS 120V190 9999 FEW040 04/01 Q1002 R27/000060 NOSIG RMK QFE731

VFR

3°C / 1°C

[Plus]
Vent 180º 4kt
Visibilité >10km
Météo -
Nuages Clouds and Visibility OK
Pression 1002
Changement No Significant change
Brut USCC 230030Z 18002MPS CAVOK 03/01 Q1002 R27/000060 NOSIG RMK QFE731

VFR

3°C / 1°C

[Plus]
Vent 190º 6kt
Visibilité >10km
Météo -
Nuages Clouds and Visibility OK
Pression 1001
Changement No Significant change
Brut USCC 230000Z 19003MPS CAVOK 03/01 Q1001 R27/000060 NOSIG RMK QFE731

VFR

3°C / 0°C

[Plus]
Vent 190º 6kt
Visibilité >10km
Météo -
Nuages Clouds and Visibility OK
Pression 1001
Changement No Significant change
Brut USCC 222330Z 19003MPS CAVOK 03/00 Q1001 R27/000060 NOSIG RMK QFE731

VFR

2°C / 1°C

[Plus]
Vent 160º 6kt
Visibilité >10km
Météo -
Nuages Clouds and Visibility OK
Pression 1001
Changement No Significant change
Brut USCC 222300Z 16003MPS CAVOK 02/01 Q1001 R27/000060 NOSIG RMK QFE731

VFR

3°C / 0°C

[Plus]
Vent 170º 4kt
Visibilité >10km
Météo -
Nuages Clouds and Visibility OK
Pression 1001
Changement No Significant change
Brut USCC 222230Z 17002MPS CAVOK 03/00 Q1001 R27/000060 NOSIG RMK QFE731

TAF pour 55.31°N 61.5°E (USCC)

From till


From till Wind 160º 6kt. Gust 21kt. Visibility 6000m. Broken Clouds 1600ft.
Temporarly from till Wind 100º 12kt. Gust 27kt. Visibility 2000m. Showers Rain Mist . Broken Clouds 1100ft.

Brut: TAF USCC 230800Z 2309/2409 16003G11MPS 6000 BKN016CB TEMPO 2309/2409 10006G14MPS 2000 SHRA BR BKN011CB

Radar et prévision de précipitation à court terme pour 55.31°N 61.5°E

Bruine
Légère
Modéré
Fort
Très fort
Grêle

Le marqueur est placé sur 55.31°N 61.5°E. Cette animation montre le Radar des précipitations pour les dernières heures, ainsi qu'une 1h prévision. La bruine ou les légères chutes de neiges peuvent ne pas être détectées par le radar. L'intensité des précipitations est visible avec un code couleur allant du bleu clair au violet foncé et orange.

Les images satellites et les pluies actuelles pour 55.31°N 61.5°E

Le marqueur est placé sur 55.31°N 61.5°E. [Plus]

L'image satellite en temps réel combine la lumière visible pendant la journée et le rayonnement infrarouge pendant la nuit. La nuit, l'image n'est pas sombre car le rayonnement infrarouge permet de détecter les différences de température. Malheureusement, les nuages bas et le brouillard sont difficiles à distinguer des températures au sol et peuvent donc être presque invisibles pendant la nuit. Les images des satellites Météosat pour l'Europe sont mises à jour en temps réel toutes les 5 minutes. Les images GOES-16/GOES-17 (Amérique du Nord et du Sud) et Himawari (Asie) sont mises à jour toutes les 10 minutes.

Copyright 2022 EUMETSAT / meteoblue. / Copyright 2022 meteoblue

Retour vers le haut